Terminal Aerodrome Forecast
Issued by NWS

Home | Current Version | Previous Version | Text Only | Print | Product List | Glossary On
Versions: 1 2 3 4 5 6 7 8 9 10 11 12 13 14 15 16 17 18 19 20 21 22 23 24 25 26 27 28 29 30 31 32 33 34 35 36 37 38 39 40
411
FTUS45 KBOU 110902 AAA
TAFBJC
TAF AMD
KBJC 110902Z 1109/1206 30012KT P6SM FEW220
     FM111700 32010KT P6SM FEW120 SCT220
     FM112200 26006KT P6SM SCT120 BKN220
     FM120400 21007KT P6SM FEW130 SCT220=

USA.gov is the U.S. government's official web portal to all federal, state and local government web resources and services.